Time;durP1;ratioP1;P1;durP2;ratioP2;P2;SDS_P1;SDS_P2;PMS_P1;PMS_P2;Temp;Humidity;BMP_temperature;BMP_pressure;BME280_temperature;BME280_humidity;BME280_pressure;Samples;Min_cycle;Max_cycle;Signal;HPM_P1;HPM_P2
2023/05/23 00:02:08;;;;;;;71.20;35.17;;;17.90;99.90;;;17.33;100.00;97140.63;6157361;23;20402;-79
2023/05/23 00:04:35;;;;;;;78.23;36.50;;;17.90;99.90;;;17.29;100.00;97143.06;6156891;23;20383;-77
2023/05/23 00:07:03;;;;;;;74.93;38.17;;;17.80;99.90;;;17.24;100.00;97140.53;6157861;23;20403;-77
2023/05/23 00:09:29;;;;;;;68.55;37.70;;;17.80;99.90;;;17.23;100.00;97140.81;6156894;23;20378;-78
2023/05/23 00:11:55;;;;;;;70.55;37.15;;;17.80;99.90;;;17.14;100.00;97143.41;6157008;23;20371;-79
2023/05/23 00:14:22;;;;;;;84.47;40.92;;;17.70;99.90;;;17.12;100.00;97142.94;6157023;23;20511;-78
2023/05/23 00:16:48;;;;;;;73.65;39.17;;;17.70;99.90;;;17.08;100.00;97147.28;6157532;23;20371;-78
2023/05/23 00:19:15;;;;;;;78.82;39.40;;;17.70;99.90;;;17.09;100.00;97140.03;6156355;23;20711;-79
2023/05/23 00:21:42;;;;;;;72.78;39.15;;;17.60;99.90;;;17.14;100.00;97142.63;6157282;23;20457;-79
2023/05/23 00:24:09;;;;;;;87.57;43.65;;;17.70;99.90;;;16.99;100.00;97139.16;6157430;23;20389;-78
2023/05/23 00:26:36;;;;;;;91.03;41.88;;;17.60;99.90;;;17.00;100.00;97146.09;6156392;23;20371;-77
2023/05/23 00:29:02;;;;;;;80.13;43.22;;;17.60;99.90;;;17.07;100.00;97137.66;6156940;23;20378;-79
2023/05/23 00:31:28;;;;;;;93.10;44.27;;;17.60;99.90;;;17.08;100.00;97139.25;6157402;23;20395;-78
2023/05/23 00:33:54;;;;;;;88.43;43.80;;;17.60;99.90;;;17.01;100.00;97139.66;6157646;23;20375;-79
2023/05/23 00:36:21;;;;;;;91.03;45.58;;;17.60;99.90;;;17.06;100.00;97138.78;6159257;23;20371;-79
2023/05/23 00:38:48;;;;;;;94.83;44.83;;;17.60;99.90;;;17.00;100.00;97146.09;6160338;23;20371;-78
2023/05/23 00:41:17;;;;;;;92.32;45.70;;;17.60;99.90;;;16.96;100.00;97147.00;6160658;23;20402;-78
2023/05/23 00:43:43;;;;;;;91.10;47.47;;;17.60;99.90;;;16.97;100.00;97149.38;6160987;23;20394;-78
2023/05/23 00:46:10;;;;;;;101.70;49.47;;;17.50;99.90;;;17.03;100.00;97142.03;6161122;23;20356;-78
2023/05/23 00:48:37;;;;;;;103.95;50.20;;;17.50;99.90;;;16.97;100.00;97146.69;6161704;23;20673;-78
2023/05/23 00:51:03;;;;;;;106.70;50.47;;;17.60;99.90;;;16.91;100.00;97157.78;6162268;23;20382;-77
2023/05/23 00:53:29;;;;;;;98.00;47.08;;;17.50;99.90;;;16.92;100.00;97159.34;6161177;23;20394;-78
2023/05/23 00:55:55;;;;;;;92.68;45.97;;;17.50;99.90;;;16.98;100.00;97155.50;6161867;23;20371;-78
2023/05/23 00:58:23;;;;;;;102.97;49.55;;;17.50;99.90;;;16.97;100.00;97162.75;6163620;23;20371;-78
2023/05/23 01:00:49;;;;;;;101.80;48.47;;;17.50;99.90;;;17.05;100.00;97163.94;6161641;23;20371;-78
2023/05/23 01:03:16;;;;;;;101.80;49.45;;;17.60;99.90;;;17.24;100.00;97161.91;6161155;23;20403;-78
2023/05/23 01:05:43;;;;;;;99.25;47.90;;;17.70;99.90;;;17.28;100.00;97168.28;6162086;23;20854;-78
2023/05/23 01:08:08;;;;;;;107.47;52.88;;;17.80;99.90;;;17.24;100.00;97163.81;6162088;23;20449;-78
2023/05/23 01:10:34;;;;;;;98.38;47.63;;;17.80;99.90;;;17.31;100.00;97172.22;6161646;23;20367;-78
2023/05/23 01:13:19;;;;;;;98.63;47.67;;;17.80;99.90;;;17.30;100.00;97173.31;6161722;23;20381;-79
2023/05/23 01:15:54;;;;;;;100.33;49.33;;;17.80;99.90;;;17.29;100.00;97166.41;6161421;23;20370;-78
2023/05/23 01:18:29;;;;;;;105.07;52.40;;;17.80;99.90;;;17.28;100.00;97165.59;6161456;23;20375;-79
2023/05/23 01:21:00;;;;;;;107.37;50.87;;;17.80;99.90;;;17.21;100.00;97170.56;6162369;23;20356;-78
2023/05/23 01:23:59;;;;;;;108.35;52.00;;;17.70;99.90;;;17.10;100.00;97171.03;6161353;23;20472;-79
2023/05/23 01:26:40;;;;;;;109.90;52.40;;;17.70;99.90;;;16.95;100.00;97172.13;6161038;23;20374;-79
2023/05/23 01:29:13;;;;;;;106.13;52.70;;;17.50;99.90;;;16.91;100.00;97168.50;6161242;23;20691;-79
2023/05/23 01:31:44;;;;;;;110.10;54.25;;;17.50;99.90;;;16.83;100.00;97182.53;6161485;23;20367;-78
2023/05/23 01:34:12;;;;;;;113.75;55.63;;;17.40;99.90;;;16.84;100.00;97179.53;6161721;23;20379;-78
2023/05/23 01:36:41;;;;;;;115.57;57.20;;;17.40;99.90;;;16.78;100.00;97167.38;6162324;23;20371;-78
2023/05/23 01:39:09;;;;;;;115.68;58.65;;;17.40;99.90;;;16.73;100.00;97177.38;6162158;23;20423;-79
2023/05/23 01:41:35;;;;;;;119.67;59.30;;;17.30;99.90;;;16.71;100.00;97174.97;6162245;23;20837;-79
2023/05/23 01:44:02;;;;;;;113.90;59.00;;;17.30;99.90;;;16.73;100.00;97169.34;6160424;23;20387;-80
2023/05/23 01:46:31;;;;;;;117.07;57.88;;;17.30;99.90;;;16.79;100.00;97176.97;6135925;23;20371;-80
2023/05/23 01:48:59;;;;;;;124.22;57.80;;;17.30;99.90;;;16.80;100.00;97175.09;6160264;23;20371;-80
2023/05/23 01:51:26;;;;;;;116.72;58.33;;;17.30;99.90;;;16.78;100.00;97179.94;6159895;23;20457;-79
2023/05/23 01:53:52;;;;;;;112.00;58.60;;;17.30;99.90;;;16.68;100.00;97180.16;6160122;23;20391;-79
2023/05/23 01:56:20;;;;;;;117.78;59.63;;;17.30;99.90;;;16.66;100.00;97176.97;6160252;23;20478;-78
2023/05/23 01:58:46;;;;;;;121.65;60.75;;;17.20;99.90;;;16.56;100.00;97178.69;6160271;23;20453;-78
2023/05/23 02:01:13;;;;;;;121.47;61.03;;;17.20;99.90;;;16.56;100.00;97180.56;6160507;23;20367;-79
2023/05/23 02:03:40;;;;;;;120.40;60.50;;;17.10;99.90;;;16.55;100.00;97173.63;6158042;23;20461;-79
2023/05/23 02:06:06;;;;;;;127.40;63.35;;;17.10;99.90;;;16.42;100.00;97172.53;6160797;23;20374;-78
2023/05/23 02:08:32;;;;;;;128.07;65.55;;;17.00;99.90;;;16.49;100.00;97177.50;6159228;23;20906;-80
2023/05/23 02:10:58;;;;;;;131.18;64.75;;;17.00;99.90;;;16.35;100.00;97166.78;6158668;23;20367;-79
2023/05/23 02:13:24;;;;;;;124.88;64.50;;;17.00;99.90;;;16.33;100.00;97165.47;6158531;23;20373;-80
2023/05/23 02:15:50;;;;;;;128.82;65.00;;;16.90;99.90;;;16.30;100.00;97169.53;6158294;23;20823;-79
2023/05/23 02:18:16;;;;;;;129.57;65.28;;;16.90;99.90;;;16.26;100.00;97163.19;6157612;23;20445;-79
2023/05/23 02:20:44;;;;;;;139.13;65.70;;;16.90;99.90;;;16.21;100.00;97172.09;6157323;23;20385;-78
2023/05/23 02:23:10;;;;;;;127.53;63.47;;;16.80;99.90;;;16.33;100.00;97173.50;6157324;23;20379;-79
2023/05/23 02:25:36;;;;;;;129.97;64.43;;;16.90;99.90;;;16.30;100.00;97174.09;6156683;23;20421;-78
2023/05/23 02:28:01;;;;;;;117.82;62.45;;;16.90;99.90;;;16.37;100.00;97169.97;6156826;23;20375;-80
2023/05/23 02:30:28;;;;;;;124.63;63.90;;;16.90;99.90;;;16.33;100.00;97174.28;6157077;23;20379;-79
2023/05/23 02:32:54;;;;;;;124.00;63.47;;;16.90;99.90;;;16.38;100.00;97171.53;6157015;23;20518;-80
2023/05/23 02:35:21;;;;;;;128.50;65.07;;;16.90;99.90;;;16.30;100.00;97169.53;6159824;23;20391;-78
2023/05/23 02:37:48;;;;;;;126.38;65.78;;;16.90;99.90;;;16.29;100.00;97172.50;6159707;23;20421;-78
2023/05/23 02:40:14;;;;;;;123.20;64.30;;;16.90;99.90;;;16.33;100.00;97176.94;6157567;23;20451;-79
2023/05/23 02:42:40;;;;;;;130.00;64.35;;;16.90;99.90;;;16.35;100.00;97184.69;6159292;23;20398;-79
2023/05/23 02:45:07;;;;;;;117.47;61.53;;;16.90;99.90;;;16.43;100.00;97184.00;6146722;23;20917;-79
2023/05/23 02:47:33;;;;;;;119.43;64.07;;;17.00;99.90;;;16.47;100.00;97174.31;6158376;23;20387;-79
2023/05/23 02:49:59;;;;;;;119.78;64.15;;;17.00;99.90;;;16.50;100.00;97182.53;6158857;23;20367;-79
2023/05/23 02:52:25;;;;;;;126.95;62.63;;;17.00;99.90;;;16.53;100.00;97183.84;6158434;23;20367;-78
2023/05/23 02:54:52;;;;;;;122.20;63.22;;;17.10;99.90;;;16.60;100.00;97186.94;6159305;23;20374;-79
2023/05/23 02:57:18;;;;;;;118.22;64.82;;;17.10;99.90;;;16.60;100.00;97189.59;6159043;23;20372;-78
2023/05/23 02:59:44;;;;;;;113.63;62.45;;;17.10;99.90;;;16.59;100.00;97190.69;6159173;23;20378;-77
2023/05/23 03:02:10;;;;;;;116.30;62.28;;;17.20;99.90;;;16.49;100.00;97188.19;6159189;23;20747;-78
2023/05/23 03:04:36;;;;;;;113.05;60.85;;;17.10;99.90;;;16.54;100.00;97191.53;6158595;23;20390;-78
2023/05/23 03:07:02;;;;;;;111.28;60.90;;;17.10;99.90;;;16.52;100.00;97190.28;6159625;23;20440;-77
2023/05/23 03:09:28;;;;;;;123.85;62.38;;;17.10;99.90;;;16.46;100.00;97191.47;6159259;23;20399;-77
2023/05/23 03:11:55;;;;;;;118.32;61.08;;;17.00;99.90;;;16.44;100.00;97193.63;6157363;23;20371;-79
2023/05/23 03:14:21;;;;;;;110.93;58.37;;;17.10;99.90;;;16.50;100.00;97203.91;6156706;23;20368;-80
2023/05/23 03:16:47;;;;;;;108.07;58.67;;;17.10;99.90;;;16.52;100.00;97195.63;6157146;23;20367;-80
2023/05/23 03:19:13;;;;;;;103.33;57.33;;;17.10;99.90;;;16.54;100.00;97210.25;6157100;23;20373;-78
2023/05/23 03:21:39;;;;;;;101.60;56.37;;;17.10;99.90;;;16.59;100.00;97202.16;6156885;23;20760;-79
2023/05/23 03:24:05;;;;;;;105.47;58.40;;;17.20;99.90;;;16.71;100.00;97208.94;6156501;23;20433;-80
2023/05/23 03:26:31;;;;;;;101.63;57.00;;;17.20;99.90;;;16.67;100.00;97213.31;6157429;23;20357;-79
2023/05/23 03:28:58;;;;;;;97.88;53.80;;;17.30;99.90;;;16.78;100.00;97226.19;6156899;23;20373;-80
2023/05/23 03:31:25;;;;;;;94.80;53.67;;;17.30;99.90;;;16.82;100.00;97221.84;6156805;23;20473;-79
2023/05/23 03:33:50;;;;;;;102.78;54.80;;;17.40;99.90;;;16.80;100.00;97220.53;6157114;23;20418;-80
2023/05/23 03:36:17;;;;;;;106.00;56.78;;;17.30;99.90;;;16.85;100.00;97217.78;6157228;23;20367;-79
2023/05/23 03:38:43;;;;;;;89.00;52.03;;;17.40;99.90;;;16.91;100.00;97221.97;6157476;23;20378;-80
2023/05/23 03:41:08;;;;;;;88.18;51.78;;;17.40;99.90;;;16.94;100.00;97219.47;6155740;23;20414;-79
2023/05/23 03:43:34;;;;;;;93.13;52.40;;;17.40;99.90;;;16.82;100.00;97221.06;6156341;23;20367;-80
2023/05/23 03:46:02;;;;;;;92.18;52.47;;;17.40;99.90;;;16.88;100.00;97230.56;6157171;23;20371;-78
2023/05/23 03:48:29;;;;;;;91.55;52.58;;;17.50;99.90;;;16.89;100.00;97222.25;6157064;23;20429;-79
2023/05/23 03:50:55;;;;;;;89.82;50.55;;;17.40;99.90;;;16.89;100.00;97224.94;6158178;23;20978;-78
2023/05/23 03:53:21;;;;;;;90.35;51.03;;;17.40;99.90;;;16.88;100.00;97219.88;6155048;23;20371;-78
2023/05/23 03:55:47;;;;;;;99.20;53.13;;;17.40;99.90;;;16.87;100.00;97212.94;6154800;23;20378;-78
2023/05/23 03:58:12;;;;;;;90.57;52.05;;;17.40;99.90;;;16.85;100.00;97218.56;6154834;23;20430;-79
2023/05/23 04:00:38;;;;;;;86.85;51.80;;;17.40;99.90;;;16.83;100.00;97217.28;6155692;23;20371;-78
2023/05/23 04:03:07;;;;;;;94.07;51.65;;;17.40;99.90;;;16.76;100.00;97208.88;6158490;23;20374;-77
2023/05/23 04:05:33;;;;;;;87.65;50.83;;;17.40;99.90;;;16.74;100.00;97217.19;6158958;23;20441;-78
2023/05/23 04:08:00;;;;;;;85.73;49.60;;;17.40;99.90;;;16.80;100.00;97226.69;6159136;23;20367;-78
2023/05/23 04:10:26;;;;;;;82.53;51.10;;;17.40;99.90;;;16.74;100.00;97227.88;6158320;23;20428;-77
2023/05/23 04:12:52;;;;;;;91.47;51.80;;;17.40;99.90;;;16.75;100.00;97224.13;6157254;23;20381;-78
2023/05/23 04:15:20;;;;;;;88.60;50.63;;;17.30;99.90;;;16.71;100.00;97220.44;6157468;23;20903;-78
2023/05/23 04:17:46;;;;;;;87.20;51.25;;;17.30;99.90;;;16.77;100.00;97224.59;6159352;23;20371;-78
2023/05/23 04:20:13;;;;;;;87.45;49.90;;;17.30;99.90;;;16.81;100.00;97222.13;6159483;23;20382;-76
2023/05/23 04:22:39;;;;;;;89.60;50.47;;;17.30;99.90;;;16.77;100.00;97223.78;6159875;23;20370;-78
2023/05/23 04:25:06;;;;;;;84.40;49.20;;;17.30;99.90;;;16.82;100.00;97229.06;6158449;23;20402;-78
2023/05/23 04:27:33;;;;;;;85.83;49.77;;;17.40;99.90;;;16.77;100.00;97223.78;6159844;23;20450;-78
2023/05/23 04:29:59;;;;;;;87.00;48.38;;;17.30;99.90;;;16.81;100.00;97235.50;6158817;23;20699;-77
2023/05/23 04:32:25;;;;;;;84.25;49.53;;;17.40;99.90;;;16.78;100.00;97233.41;6157312;23;20692;-77
2023/05/23 04:34:51;;;;;;;74.53;46.08;;;17.30;99.90;;;16.86;100.00;97230.06;6158562;23;20374;-78
2023/05/23 04:37:24;;;;;;;79.57;47.10;;;17.30;99.90;;;16.93;100.00;97233.13;6156253;23;20775;-77
2023/05/23 04:39:51;;;;;;;78.03;48.57;;;17.40;99.90;;;16.87;100.00;97229.75;6158205;23;20371;-78
2023/05/23 04:42:23;;;;;;;76.43;47.13;;;17.40;99.90;;;16.82;100.00;97240.56;6157555;23;20835;-77
2023/05/23 04:44:49;;;;;;;75.25;46.92;;;17.40;99.90;;;16.91;100.00;97236.13;6156435;23;20383;-78
2023/05/23 04:47:15;;;;;;;86.43;48.53;;;17.50;99.90;;;16.91;100.00;97251.38;6159203;23;20707;-78
2023/05/23 04:49:41;;;;;;;76.97;47.27;;;17.50;99.90;;;16.86;100.00;97246.88;6158669;23;20371;-78
2023/05/23 04:52:06;;;;;;;86.30;50.27;;;17.40;99.90;;;16.75;100.00;97253.50;6157218;23;20380;-78
2023/05/23 04:54:36;;;;;;;75.27;47.27;;;17.30;99.90;;;16.83;100.00;97252.03;6159002;23;20367;-78
2023/05/23 04:57:02;;;;;;;73.55;46.15;;;17.40;99.90;;;16.91;100.00;97254.03;6159072;23;20378;-77
2023/05/23 04:59:28;;;;;;;75.40;45.92;;;17.40;99.90;;;17.08;100.00;97261.47;6158379;23;20420;-78
2023/05/23 05:01:54;;;;;;;73.78;46.53;;;17.50;99.90;;;16.95;100.00;97263.84;6159785;23;20379;-77
2023/05/23 05:04:21;;;;;;;73.93;47.00;;;17.50;99.90;;;16.90;100.00;97258.59;6159415;23;20383;-78
2023/05/23 05:06:47;;;;;;;73.05;47.10;;;17.50;99.90;;;16.92;100.00;97261.75;6159307;23;20435;-79
2023/05/23 05:09:13;;;;;;;74.28;45.20;;;17.50;99.90;;;16.97;100.00;97260.88;6159857;23;20391;-78
2023/05/23 05:11:41;;;;;;;77.60;46.03;;;17.50;99.90;;;16.94;100.00;97259.59;6160620;23;20424;-78
2023/05/23 05:14:06;;;;;;;74.38;46.08;;;17.50;99.90;;;16.95;100.00;97260.38;6159699;23;20367;-79
2023/05/23 05:16:32;;;;;;;73.70;48.42;;;17.50;99.90;;;16.95;100.00;97260.38;6159909;23;20374;-79
2023/05/23 05:18:58;;;;;;;77.00;45.65;;;17.50;99.90;;;16.90;100.00;97261.28;6159853;23;20371;-78
2023/05/23 05:21:24;;;;;;;77.07;46.97;;;17.50;99.90;;;16.85;100.00;97266.69;6161559;23;20846;-79
2023/05/23 05:23:51;;;;;;;69.93;45.45;;;17.50;99.90;;;16.91;100.00;97272.75;6161037;23;20371;-79
2023/05/23 05:26:17;;;;;;;72.40;46.63;;;17.50;99.90;;;16.91;100.00;97265.53;6134812;23;20394;-79
2023/05/23 05:28:44;;;;;;;70.20;46.17;;;17.50;99.90;;;16.95;100.00;97271.06;6162454;23;20371;-80
2023/05/23 05:31:13;;;;;;;68.65;46.38;;;17.50;99.90;;;16.81;100.00;97276.41;6158614;23;20383;-78
2023/05/23 05:33:40;;;;;;;68.07;46.77;;;17.50;99.90;;;16.92;100.00;97275.13;6156763;23;20707;-79
2023/05/23 05:36:06;;;;;;;72.43;46.80;;;17.40;99.90;;;16.99;100.00;97277.41;6159862;23;20730;-79
2023/05/23 05:38:33;;;;;;;74.78;47.78;;;17.50;99.90;;;16.94;100.00;97277.50;6160009;23;20727;-79
2023/05/23 05:40:58;;;;;;;72.88;45.88;;;17.50;99.90;;;16.92;100.00;97272.44;6157277;23;20371;-79
2023/05/23 05:43:25;;;;;;;72.55;48.35;;;17.50;99.90;;;16.96;100.00;97270.78;6156924;23;20398;-78
2023/05/23 05:45:52;;;;;;;74.30;47.63;;;17.50;99.90;;;17.16;100.00;97274.97;6157405;23;20784;-78
2023/05/23 05:48:18;;;;;;;74.57;49.67;;;17.60;99.90;;;17.21;100.00;97272.22;6157165;23;20375;-79
2023/05/23 05:50:45;;;;;;;72.65;47.72;;;17.70;99.90;;;17.31;100.00;97273.88;6157760;23;20459;-80
2023/05/23 05:53:12;;;;;;;76.43;47.70;;;17.80;99.90;;;17.33;100.00;97274.38;6157347;23;20372;-79
2023/05/23 05:55:38;;;;;;;76.10;47.78;;;17.90;99.90;;;17.40;100.00;97278.25;6155566;23;20728;-78
2023/05/23 05:58:04;;;;;;;71.40;48.50;;;17.90;99.90;;;17.52;100.00;97280.41;6155247;23;20466;-77
2023/05/23 06:00:30;;;;;;;76.27;48.40;;;18.00;99.90;;;17.56;100.00;97284.09;6155290;23;20377;-77
2023/05/23 06:02:58;;;;;;;73.28;48.50;;;18.10;99.90;;;17.51;100.00;97278.88;6154761;23;20465;-78
2023/05/23 06:05:24;;;;;;;74.70;49.10;;;18.10;99.90;;;17.61;100.00;97283.19;6156004;23;20383;-78
2023/05/23 06:07:50;;;;;;;76.60;47.88;;;18.10;99.90;;;17.72;100.00;97292.66;6155976;23;20417;-79
2023/05/23 06:10:16;;;;;;;74.82;49.05;;;18.20;99.90;;;17.71;100.00;97288.38;6156375;23;20383;-78
2023/05/23 06:12:43;;;;;;;74.03;50.65;;;18.30;99.90;;;17.53;100.00;97294.59;6155813;23;20367;-78
2023/05/23 06:15:10;;;;;;;76.57;50.55;;;18.10;99.90;;;17.48;100.00;97290.16;6156415;23;20862;-78
2023/05/23 06:17:36;;;;;;;76.22;50.40;;;18.00;99.90;;;17.51;100.00;97286.88;6155067;23;20395;-78
2023/05/23 06:20:05;;;;;;;74.80;48.97;;;18.00;99.90;;;17.53;100.00;97289.25;6154522;23;20367;-77
2023/05/23 06:22:31;;;;;;;73.22;48.50;;;18.00;99.90;;;17.69;100.00;97286.00;6152854;23;20375;-78
2023/05/23 06:24:56;;;;;;;74.40;47.15;;;18.20;99.90;;;17.73;100.00;97294.25;6154224;23;20421;-77
2023/05/23 06:27:23;;;;;;;65.30;45.60;;;18.30;99.90;;;17.79;100.00;97295.72;6155653;23;20368;-79
2023/05/23 06:29:49;;;;;;;69.88;46.13;;;18.30;99.90;;;17.76;100.00;97293.63;6151531;23;20385;-78
2023/05/23 06:32:15;;;;;;;69.25;44.35;;;18.30;99.90;;;17.65;100.00;97295.75;6154294;23;20403;-77
2023/05/23 06:34:41;;;;;;;68.65;44.42;;;18.20;99.90;;;17.68;100.00;97299.69;6153722;23;20386;-78
2023/05/23 06:37:08;;;;;;;67.55;43.72;;;18.20;99.90;;;17.57;100.00;97303.63;6155911;23;20873;-78
2023/05/23 06:39:34;;;;;;;68.80;43.80;;;18.10;99.90;;;17.56;100.00;97304.72;6154756;23;20395;-79
2023/05/23 06:42:01;;;;;;;62.23;41.13;;;18.10;99.90;;;17.57;100.00;97311.66;6156834;23;20548;-77
2023/05/23 06:44:27;;;;;;;62.13;41.13;;;18.10;99.90;;;17.64;100.00;97314.75;6156395;23;20386;-77
2023/05/23 06:46:57;;;;;;;64.75;42.40;;;18.20;99.90;;;17.54;100.00;97318.41;6156938;23;20842;-76
2023/05/23 06:49:23;;;;;;;68.70;41.35;;;18.10;99.90;;;17.51;100.00;97316.34;6154524;23;20676;-77
2023/05/23 06:51:50;;;;;;;63.25;41.17;;;18.10;99.90;;;17.53;100.00;97327.50;6154112;23;20364;-76
2023/05/23 06:54:17;;;;;;;73.15;42.42;;;18.10;99.90;;;17.47;100.00;97325.22;6153297;23;20378;-78
2023/05/23 06:56:44;;;;;;;63.03;39.35;;;18.10;99.90;;;17.41;100.00;97337.91;6154568;23;20367;-77
2023/05/23 06:59:10;;;;;;;58.95;39.67;;;17.90;99.90;;;17.21;100.00;97344.44;6154335;23;20375;-77
2023/05/23 07:01:36;;;;;;;65.80;41.70;;;17.80;99.90;;;17.12;100.00;97335.50;6154179;23;20371;-77
2023/05/23 07:04:01;;;;;;;62.42;41.38;;;17.70;99.90;;;16.90;100.00;97346.03;6153445;23;20402;-77
2023/05/23 07:06:27;;;;;;;62.92;41.83;;;17.50;99.90;;;16.81;100.00;97343.22;6153221;23;20371;-76
2023/05/23 07:08:54;;;;;;;61.17;40.47;;;17.40;99.90;;;16.75;100.00;97343.59;6151597;23;20828;-76
2023/05/23 07:11:25;;;;;;;59.17;39.65;;;17.40;99.90;;;16.86;100.00;97356.50;6152947;23;20375;-78
2023/05/23 07:13:51;;;;;;;62.55;40.75;;;17.40;99.90;;;16.81;100.00;97361.16;6154060;23;20371;-79
2023/05/23 07:16:17;;;;;;;61.08;39.03;;;17.40;99.90;;;16.70;100.00;97355.16;6154207;23;20502;-78
2023/05/23 07:18:43;;;;;;;64.05;39.42;;;17.30;99.90;;;16.74;100.00;97353.50;6153441;23;20379;-78
2023/05/23 07:21:09;;;;;;;60.05;37.70;;;17.30;99.90;;;16.74;100.00;97366.06;6154857;23;20417;-78
2023/05/23 07:23:40;;;;;;;52.92;37.28;;;17.30;99.90;;;16.83;100.00;97365.13;6155364;23;20375;-79
2023/05/23 07:26:08;;;;;;;51.70;36.20;;;17.40;99.90;;;16.82;100.00;97365.41;6127826;23;20457;-77
2023/05/23 07:28:38;;;;;;;54.22;36.42;;;17.40;99.90;;;16.80;100.00;97359.56;6158261;23;20389;-79
2023/05/23 07:31:04;;;;;;;50.47;33.50;;;17.30;99.90;;;16.87;100.00;97365.31;6156020;23;20399;-80
2023/05/23 07:33:30;;;;;;;57.05;38.28;;;17.40;99.90;;;16.79;100.00;97368.66;6157622;23;20384;-78
2023/05/23 07:35:55;;;;;;;58.38;38.95;;;17.40;99.90;;;16.81;100.00;97375.31;6151931;23;20363;-79
2023/05/23 07:38:21;;;;;;;57.30;41.00;;;17.30;99.90;;;16.63;100.00;97378.78;6156652;23;20371;-78
2023/05/23 07:40:47;;;;;;;58.97;42.50;;;17.30;99.90;;;16.58;100.00;97368.94;6156294;23;20391;-78
2023/05/23 07:43:13;;;;;;;66.97;42.97;;;17.20;99.90;;;16.61;100.00;97370.28;6156439;23;20457;-80
2023/05/23 07:45:41;;;;;;;60.75;41.30;;;17.10;99.90;;;16.63;100.00;97382.25;6157344;23;20723;-82
2023/05/23 07:48:07;;;;;;;59.85;40.63;;;17.20;99.90;;;16.61;100.00;97376.38;6157107;23;20371;-80
2023/05/23 07:50:33;;;;;;;52.58;37.10;;;17.20;99.90;;;16.62;100.00;97371.84;6157613;23;20746;-81
2023/05/23 07:53:01;;;;;;;50.17;35.13;;;17.10;99.90;;;16.72;100.00;97370.91;6157076;23;20767;-80
2023/05/23 07:55:27;;;;;;;46.60;34.13;;;17.30;99.90;;;16.78;100.00;97375.09;6157529;23;20374;-77
2023/05/23 07:57:55;;;;;;;47.67;33.42;;;17.40;99.90;;;17.16;100.00;97381.97;6158362;23;20367;-78
2023/05/23 08:00:21;;;;;;;46.50;32.60;;;17.60;99.90;;;17.37;100.00;97377.84;6158232;23;20363;-77
2023/05/23 08:02:48;;;;;;;51.30;34.22;;;17.90;99.90;;;17.42;100.00;97393.03;6156769;23;20430;-78
2023/05/23 08:05:15;;;;;;;47.67;33.85;;;18.00;99.90;;;17.45;100.00;97387.06;6157757;23;20394;-78
2023/05/23 08:07:41;;;;;;;50.15;34.45;;;17.90;99.90;;;17.37;100.00;97387.75;6158021;23;20377;-77
2023/05/23 08:10:08;;;;;;;52.47;33.65;;;17.90;99.90;;;17.40;100.00;97387.16;6158553;23;20751;-79
2023/05/23 08:12:33;;;;;;;46.83;33.00;;;17.90;99.90;;;17.39;100.00;97391.72;6157790;23;20460;-79
2023/05/23 08:14:59;;;;;;;59.93;32.50;;;17.90;99.90;;;17.34;100.00;97388.34;6158006;23;20402;-79
2023/05/23 08:17:25;;;;;;;43.00;29.80;;;17.80;99.90;;;17.39;100.00;97394.41;6157623;23;20363;-78
2023/05/23 08:19:53;;;;;;;42.60;28.77;;;17.90;99.90;;;17.39;100.00;97404.31;6155900;23;20379;-78
2023/05/23 08:22:19;;;;;;;42.65;29.30;;;17.90;99.90;;;17.19;100.00;97405.47;6156706;23;20847;-77
2023/05/23 08:24:45;;;;;;;37.83;27.33;;;17.70;99.90;;;17.18;100.00;97405.75;6156755;23;20601;-78
2023/05/23 08:27:11;;;;;;;40.33;27.58;;;17.80;99.90;;;17.22;100.00;97404.84;6158241;23;20371;-77
2023/05/23 08:29:37;;;;;;;37.45;27.13;;;17.70;99.90;;;17.18;100.00;97409.22;6160378;23;20371;-79
2023/05/23 08:32:03;;;;;;;50.70;27.33;;;17.70;99.90;;;17.07;100.00;97405.09;6158276;23;20457;-78
2023/05/23 08:34:30;;;;;;;43.28;28.13;;;17.70;99.90;;;16.95;100.00;97418.13;6158638;23;20370;-77
2023/05/23 08:36:57;;;;;;;36.95;26.08;;;17.50;99.90;;;16.97;100.00;97413.31;6157956;23;20716;-79
2023/05/23 08:39:23;;;;;;;40.00;26.02;;;17.50;99.90;;;16.77;100.00;97416.25;6159166;23;20371;-79
2023/05/23 08:41:49;;;;;;;60.45;25.75;;;17.40;99.90;;;16.61;100.00;97421.06;6159002;23;20669;-78
2023/05/23 08:44:15;;;;;;;38.72;24.35;;;17.20;99.90;;;16.75;100.00;97421.94;6157494;23;20452;-77
2023/05/23 08:46:45;;;;;;;80.13;27.80;;;17.30;99.90;;;16.78;100.00;97426.66;6158006;23;20367;-77
2023/05/23 08:49:16;;;;;;;47.38;24.25;;;17.30;99.90;;;16.74;100.00;97420.34;6157823;23;20835;-77
2023/05/23 08:51:43;;;;;;;41.00;22.85;;;17.40;99.90;;;16.82;100.00;97437.59;6159060;23;20370;-78
2023/05/23 08:54:12;;;;;;;33.03;23.15;;;17.40;99.90;;;16.97;100.00;97438.16;6158311;23;20421;-78
2023/05/23 08:56:38;;;;;;;34.05;24.13;;;17.50;99.90;;;16.92;100.00;97438.22;6158327;23;20398;-77
2023/05/23 08:59:05;;;;;;;33.40;23.20;;;17.50;99.90;;;17.02;100.00;97434.63;6158869;23;20414;-76
2023/05/23 09:01:33;;;;;;;38.60;23.75;;;17.60;99.90;;;16.78;100.00;97434.69;6157396;23;20367;-77
2023/05/23 09:04:03;;;;;;;34.30;24.48;;;17.40;99.90;;;16.88;100.00;97444.44;6158176;23;20445;-78
2023/05/23 09:06:31;;;;;;;35.42;25.67;;;17.50;99.90;;;16.77;100.00;97437.66;6157740;23;20688;-76
2023/05/23 09:08:57;;;;;;;34.35;24.65;;;17.30;99.90;;;16.86;100.00;97439.38;6158193;23;20371;-77
2023/05/23 09:11:24;;;;;;;39.53;25.05;;;17.40;99.90;;;16.91;100.00;97439.34;6157848;23;20374;-77
2023/05/23 09:13:50;;;;;;;48.88;24.45;;;17.50;99.90;;;16.85;100.00;97442.34;6157919;23;20426;-79
2023/05/23 09:16:18;;;;;;;37.78;23.42;;;17.50;99.90;;;16.67;100.00;97453.84;6156991;23;20402;-78
2023/05/23 09:18:44;;;;;;;35.13;23.20;;;17.30;99.90;;;16.84;100.00;97457.59;6155474;23;20367;-77
2023/05/23 09:21:12;;;;;;;35.13;23.38;;;17.40;99.90;;;16.85;100.00;97456.50;6158401;23;20398;-77
2023/05/23 09:23:40;;;;;;;34.90;23.83;;;17.40;99.90;;;16.77;100.00;97456.38;6155378;23;20437;-78
2023/05/23 09:26:09;;;;;;;33.53;21.52;;;17.40;99.90;;;16.67;100.00;97446.63;6155028;23;20754;-77
2023/05/23 09:28:39;;;;;;;28.88;20.67;;;17.30;99.90;;;16.85;100.00;97461.84;6154604;23;20758;-78
2023/05/23 09:31:07;;;;;;;30.50;22.20;;;17.40;99.90;;;16.89;100.00;97451.41;6155187;23;20371;-77
2023/05/23 09:33:37;;;;;;;27.67;19.53;;;17.40;99.90;;;17.11;100.00;97454.28;6155548;23;20397;-77
2023/05/23 09:36:05;;;;;;;29.83;20.02;;;17.60;99.90;;;17.14;100.00;97451.00;6156915;23;20422;-78
2023/05/23 09:38:31;;;;;;;25.58;19.27;;;17.70;99.90;;;17.37;100.00;97455.44;6157594;23;20374;-77
2023/05/23 09:40:58;;;;;;;26.25;17.80;;;17.80;99.90;;;17.50;100.00;97458.47;6155453;23;20386;-78
2023/05/23 09:43:24;;;;;;;27.20;17.27;;;18.00;99.90;;;17.70;100.00;97456.25;6155343;23;20375;-77
2023/05/23 09:45:53;;;;;;;29.10;17.42;;;18.20;99.60;;;17.98;100.00;97445.56;6153799;23;20418;-78
2023/05/23 09:48:19;;;;;;;22.70;16.02;;;18.40;99.40;;;18.16;100.00;97450.84;6157336;23;20854;-79
2023/05/23 09:50:46;;;;;;;23.70;15.40;;;18.60;98.00;;;18.49;100.00;97451.50;6156982;23;20371;-78
2023/05/23 09:53:11;;;;;;;20.67;15.15;;;18.90;98.20;;;18.51;100.00;97453.88;6155859;23;20371;-77
2023/05/23 09:55:39;;;;;;;25.08;15.93;;;19.00;95.00;;;18.70;100.00;97449.22;6154645;23;20435;-77
2023/05/23 09:58:06;;;;;;;24.50;14.53;;;19.20;94.70;;;18.74;100.00;97452.88;6153086;23;20883;-77